Time;durP1;ratioP1;P1;durP2;ratioP2;P2;SDS_P1;SDS_P2;PMS_P1;PMS_P2;Temp;Humidity;BMP_temperature;BMP_pressure;BME280_temperature;BME280_humidity;BME280_pressure;Samples;Min_cycle;Max_cycle;Signal;HPM_P1;HPM_P2
2022/10/01 00:01:54;;;;;;;4.80;2.20;;;;;;;9.57;79.01;100244.53;6010422;28;20444;-66
2022/10/01 00:04:50;;;;;;;5.35;2.10;;;;;;;9.74;78.93;100263.22;6007856;28;20459;-66
2022/10/01 00:07:45;;;;;;;4.15;2.00;;;;;;;9.69;78.96;100250.44;6001717;28;20054;-65
2022/10/01 00:10:42;;;;;;;5.68;2.17;;;;;;;9.69;78.58;100229.25;6001257;28;20027;-65
2022/10/01 00:13:39;;;;;;;4.85;2.17;;;;;;;9.66;79.18;100228.72;6002060;28;20031;-66
2022/10/01 00:16:34;;;;;;;5.55;2.30;;;;;;;9.62;79.22;100217.59;6001683;28;20046;-66
2022/10/01 00:19:30;;;;;;;4.30;2.17;;;;;;;9.62;79.21;100211.50;6001647;28;20031;-65
2022/10/01 00:22:25;;;;;;;5.77;2.30;;;;;;;9.69;79.37;100223.13;6000184;28;20047;-66
2022/10/01 00:25:21;;;;;;;3.73;2.20;;;;;;;9.60;79.45;100201.03;6001378;28;20037;-66
2022/10/01 00:28:16;;;;;;;6.43;1.98;;;;;;;9.73;79.39;100214.72;6000012;28;20031;-66
2022/10/01 00:31:13;;;;;;;3.83;2.10;;;;;;;9.83;78.42;100198.75;6000959;28;20041;-66
2022/10/01 00:34:10;;;;;;;9.55;2.22;;;;;;;9.90;78.71;100205.09;6001251;28;20061;-66
2022/10/01 00:37:08;;;;;;;4.40;1.92;;;;;;;9.99;78.31;100214.75;6016037;28;20113;-66
2022/10/01 00:40:05;;;;;;;5.30;2.20;;;;;;;9.95;77.89;100193.03;6001078;28;20023;-66
2022/10/01 00:43:00;;;;;;;4.00;1.73;;;;;;;10.06;78.04;100197.25;6000883;28;20026;-65
2022/10/01 00:45:59;;;;;;;4.30;2.30;;;;;;;10.05;77.97;100188.50;6001021;28;20034;-66
2022/10/01 00:48:59;;;;;;;7.57;2.05;;;;;;;10.07;78.46;100201.56;6000753;28;20481;-66
2022/10/01 00:52:02;;;;;;;3.60;1.90;;;;;;;10.02;78.15;100198.56;6000533;28;20034;-66
2022/10/01 00:55:02;;;;;;;5.20;2.40;;;;;;;9.98;78.50;100176.84;5999548;28;20042;-66
2022/10/01 00:57:57;;;;;;;3.97;2.08;;;;;;;9.99;78.53;100188.28;6000651;28;20042;-66
2022/10/01 01:00:54;;;;;;;5.82;2.20;;;;;;;10.08;78.50;100166.16;6000529;28;20066;-66
2022/10/01 01:03:50;;;;;;;5.47;1.88;;;;;;;10.04;78.49;100170.94;6005278;28;20740;-66
2022/10/01 01:06:54;;;;;;;4.82;2.33;;;;;;;10.06;78.42;100171.59;6000416;28;20536;-66
2022/10/01 01:09:50;;;;;;;4.55;2.13;;;;;;;9.97;78.62;100169.06;6010832;28;20471;-67
2022/10/01 01:13:20;;;;;;;4.40;2.13;;;;;;;9.93;79.01;100163.25;6000016;28;20045;-66
2022/10/01 01:16:28;;;;;;;4.05;1.95;;;;;;;10.01;78.70;100171.25;5992008;28;20059;-66
2022/10/01 01:19:42;;;;;;;4.18;2.22;;;;;;;9.99;79.14;100156.50;6000237;28;20037;-66
2022/10/01 01:22:44;;;;;;;4.63;2.28;;;;;;;9.96;79.11;100146.19;5993746;28;20162;-66
2022/10/01 01:26:20;;;;;;;7.50;2.33;;;;;;;9.95;79.17;100144.53;5999038;28;20109;-66
2022/10/01 01:29:26;;;;;;;4.03;2.10;;;;;;;9.99;79.20;100151.19;5977298;28;20047;-66
2022/10/01 01:32:36;;;;;;;5.78;2.33;;;;;;;9.92;79.13;100129.78;5998029;28;20030;-66
2022/10/01 01:35:43;;;;;;;4.10;1.80;;;;;;;10.05;79.01;100134.69;5997739;28;20731;-66
2022/10/01 01:38:42;;;;;;;5.50;2.20;;;;;;;10.03;79.28;100131.34;5998698;28;20030;-66
2022/10/01 01:41:47;;;;;;;4.97;2.08;;;;;;;9.90;79.22;100104.44;6001600;28;20107;-65
2022/10/01 01:44:45;;;;;;;4.20;2.08;;;;;;;10.02;78.75;100114.63;6022162;28;20026;-65
2022/10/01 01:47:42;;;;;;;4.75;1.95;;;;;;;9.95;78.89;100100.34;6018187;28;20412;-66
2022/10/01 01:50:54;;;;;;;5.43;2.30;;;;;;;10.07;79.04;100125.59;5998822;28;20039;-66
2022/10/01 01:53:50;;;;;;;4.95;2.38;;;;;;;9.98;78.75;100105.31;6014400;28;20129;-66
2022/10/01 01:56:47;;;;;;;4.38;2.35;;;;;;;9.96;79.03;100098.53;5999024;28;20418;-65
2022/10/01 01:59:42;;;;;;;6.13;2.20;;;;;;;9.97;79.06;100089.59;5997607;28;20043;-66
2022/10/01 02:02:40;;;;;;;4.22;2.13;;;;;;;9.98;78.90;100094.72;6001025;28;20386;-65
2022/10/01 02:05:42;;;;;;;5.25;2.45;;;;;;;9.96;78.98;100078.19;5998254;28;20537;-66
2022/10/01 02:08:46;;;;;;;5.93;2.17;;;;;;;9.99;79.06;100092.91;5998071;28;20041;-66
2022/10/01 02:12:06;;;;;;;8.13;2.35;;;;;;;10.00;79.14;100094.59;5998928;28;20033;-66
2022/10/01 02:15:08;;;;;;;3.60;2.00;;;;;;;10.05;78.90;100094.94;5997998;28;20118;-66
2022/10/01 02:18:21;;;;;;;3.95;2.38;;;;;;;10.07;78.54;100079.72;5999119;28;20035;-66
2022/10/01 02:21:29;;;;;;;4.72;2.28;;;;;;;10.15;78.60;100093.03;5996028;28;20027;-65
2022/10/01 02:24:38;;;;;;;5.30;2.03;;;;;;;10.18;78.67;100082.13;5996483;28;20553;-66
2022/10/01 02:27:45;;;;;;;4.65;2.13;;;;;;;10.04;78.41;100058.84;5997557;28;20067;-65
2022/10/01 02:30:43;;;;;;;5.70;2.28;;;;;;;10.14;78.54;100060.41;5998422;28;20135;-66
2022/10/01 02:33:40;;;;;;;4.55;2.33;;;;;;;10.21;78.37;100068.56;5998556;28;20043;-66
2022/10/01 02:36:37;;;;;;;8.80;2.35;;;;;;;10.12;78.24;100048.28;5999242;28;20038;-66
2022/10/01 02:39:33;;;;;;;3.65;1.92;;;;;;;10.19;78.09;100052.00;6010819;28;20038;-66
2022/10/01 02:42:29;;;;;;;3.97;2.10;;;;;;;10.13;78.53;100047.34;6011293;28;20050;-65
2022/10/01 02:45:25;;;;;;;3.50;1.90;;;;;;;10.24;78.06;100051.50;5999834;28;20193;-66
2022/10/01 02:48:20;;;;;;;4.63;2.25;;;;;;;10.17;78.67;100048.66;6002236;28;20545;-65
2022/10/01 02:51:44;;;;;;;5.07;2.30;;;;;;;10.19;78.43;100049.34;6003109;28;20418;-65
2022/10/01 02:54:51;;;;;;;6.15;2.15;;;;;;;10.06;78.80;100022.41;6010506;28;20045;-66
2022/10/01 02:57:46;;;;;;;6.60;2.20;;;;;;;10.13;78.72;100026.97;6024391;28;20069;-65
2022/10/01 03:00:41;;;;;;;5.80;2.27;;;;;;;10.12;78.27;100008.53;6001784;28;20026;-66
2022/10/01 03:03:38;;;;;;;6.07;2.10;;;;;;;10.23;78.13;100020.69;6012392;28;20281;-66
2022/10/01 03:06:34;;;;;;;4.32;2.17;;;;;;;10.21;78.54;100020.88;6026661;28;20029;-66
2022/10/01 03:09:30;;;;;;;6.40;2.58;;;;;;;10.15;78.56;100002.97;6004639;28;20050;-66
2022/10/01 03:12:26;;;;;;;5.30;2.03;;;;;;;10.25;78.18;100011.59;6002693;28;20455;-66
2022/10/01 03:15:22;;;;;;;6.55;2.30;;;;;;;10.14;78.49;99990.69;6002676;28;20178;-66
2022/10/01 03:18:17;;;;;;;5.13;2.03;;;;;;;10.25;78.21;99995.69;6003023;28;20034;-66
2022/10/01 03:21:13;;;;;;;5.30;1.90;;;;;;;10.15;78.28;99965.88;6002300;28;20031;-66
2022/10/01 03:24:08;;;;;;;5.30;2.75;;;;;;;10.18;78.40;99981.44;6002985;28;20058;-67
2022/10/01 03:27:04;;;;;;;4.37;2.37;;;;;;;10.16;78.29;99968.34;6003331;28;20066;-65
2022/10/01 03:29:59;;;;;;;6.00;2.50;;;;;;;10.22;78.38;99966.88;6002295;28;20106;-65
2022/10/01 03:32:54;;;;;;;4.70;2.20;;;;;;;10.18;78.24;99951.47;6002239;28;20329;-66
2022/10/01 03:35:49;;;;;;;6.00;2.43;;;;;;;10.16;78.37;99957.75;6002277;28;20080;-65
2022/10/01 03:38:45;;;;;;;4.37;2.20;;;;;;;10.15;78.39;99948.16;6002637;28;20661;-65
2022/10/01 03:41:40;;;;;;;6.33;2.03;;;;;;;10.21;77.94;99948.50;6001350;28;20125;-66
2022/10/01 03:44:36;;;;;;;4.50;2.43;;;;;;;10.30;78.07;99964.22;6002279;28;20113;-66
2022/10/01 03:47:31;;;;;;;3.53;2.00;;;;;;;10.29;77.86;99952.00;6002257;28;20350;-65
2022/10/01 03:50:26;;;;;;;4.00;1.80;;;;;;;10.33;77.75;99958.63;6001823;28;20031;-65
2022/10/01 03:53:23;;;;;;;6.27;2.37;;;;;;;10.26;77.74;99939.06;6002152;28;20510;-66
2022/10/01 03:56:18;;;;;;;5.88;2.45;;;;;;;10.38;77.38;99945.69;6001242;28;20039;-65
2022/10/01 03:59:13;;;;;;;7.80;2.07;;;;;;;10.48;76.93;99945.56;6001746;28;20039;-65
2022/10/01 04:02:09;;;;;;;3.73;2.00;;;;;;;10.46;76.88;99953.66;6001437;28;20077;-66
2022/10/01 04:05:04;;;;;;;4.87;2.17;;;;;;;10.44;76.87;99923.84;6009224;28;20473;-66
2022/10/01 04:08:00;;;;;;;4.43;1.88;;;;;;;10.51;76.80;99946.06;6009978;28;20026;-66
2022/10/01 04:10:55;;;;;;;6.43;2.15;;;;;;;10.44;76.45;99928.31;6001112;28;20785;-66
2022/10/01 04:13:50;;;;;;;5.53;2.30;;;;;;;10.45;76.68;99925.50;6002261;28;20489;-66
2022/10/01 04:16:48;;;;;;;3.90;2.20;;;;;;;10.46;77.08;99918.41;6002119;28;20498;-66
2022/10/01 04:19:43;;;;;;;3.00;1.80;;;;;;;10.48;76.48;99914.59;6011054;28;20096;-66
2022/10/01 04:22:41;;;;;;;2.70;1.80;;;;;;;10.58;76.36;99915.25;6017177;28;20051;-66
2022/10/01 04:25:37;;;;;;;5.15;2.03;;;;;;;10.58;76.30;99909.94;6002526;28;20116;-65
2022/10/01 04:28:32;;;;;;;8.63;2.63;;;;;;;10.65;75.99;99918.88;6003844;28;20030;-67
2022/10/01 04:31:33;;;;;;;6.30;1.70;;;;;;;10.57;75.94;99900.31;6000856;28;20034;-66
2022/10/01 04:37:43;;;;;;;4.47;1.90;;;;;;;10.65;75.06;99887.06;6000406;28;20039;-66
2022/10/01 04:40:38;;;;;;;3.67;2.10;;;;;;;10.74;74.86;99883.41;6000573;28;20031;-65
2022/10/01 04:43:34;;;;;;;5.13;2.10;;;;;;;10.85;74.03;99884.06;6001315;28;20027;-65
2022/10/01 04:46:29;;;;;;;3.33;1.85;;;;;;;10.87;74.01;99888.19;6000924;28;20038;-66
2022/10/01 04:49:25;;;;;;;5.20;2.17;;;;;;;10.84;74.41;99888.56;6000898;28;20035;-66
2022/10/01 04:52:20;;;;;;;8.90;2.30;;;;;;;10.94;73.74;99894.50;6000479;28;20446;-65
2022/10/01 04:55:16;;;;;;;4.30;2.17;;;;;;;10.95;73.71;99884.72;6000495;28;20289;-66
2022/10/01 04:58:12;;;;;;;5.65;1.90;;;;;;;10.97;74.17;99882.72;6004894;28;20034;-67
2022/10/01 05:01:07;;;;;;;4.27;2.03;;;;;;;10.89;74.02;99854.41;6023679;28;20033;-67
2022/10/01 05:04:02;;;;;;;3.30;1.90;;;;;;;10.92;74.94;99863.84;6021260;28;20265;-66
2022/10/01 05:06:58;;;;;;;4.00;2.37;;;;;;;10.80;75.62;99857.22;6024304;28;20030;-66
2022/10/01 05:09:53;;;;;;;4.72;2.40;;;;;;;10.72;76.17;99829.72;6002518;28;20027;-66
2022/10/01 05:12:50;;;;;;;4.73;2.53;;;;;;;10.76;77.01;99838.19;5999809;28;20031;-67
2022/10/01 05:15:48;;;;;;;4.70;2.38;;;;;;;10.57;78.67;99831.38;5999961;28;20375;-67
2022/10/01 05:18:43;;;;;;;5.70;2.58;;;;;;;10.50;79.39;99817.16;6000212;28;20034;-67
2022/10/01 05:21:39;;;;;;;4.03;1.97;;;;;;;10.46;80.94;99839.69;5999979;28;20470;-67
2022/10/01 05:24:34;;;;;;;4.93;2.45;;;;;;;10.22;82.58;99810.53;5999844;28;20278;-68
2022/10/01 05:27:30;;;;;;;7.27;2.83;;;;;;;10.20;84.20;99830.25;6000085;28;20035;-67
2022/10/01 05:30:25;;;;;;;7.32;2.60;;;;;;;10.08;84.33;99804.06;5999270;28;20559;-67
2022/10/01 05:33:20;;;;;;;5.93;2.60;;;;;;;10.02;86.42;99820.63;6000073;28;20534;-68
2022/10/01 05:36:16;;;;;;;8.13;2.90;;;;;;;9.94;87.17;99809.19;5999788;28;20537;-67
2022/10/01 05:39:11;;;;;;;4.30;2.27;;;;;;;9.86;88.19;99809.19;5999941;28;20034;-68
2022/10/01 05:42:06;;;;;;;8.20;3.20;;;;;;;9.80;88.52;99808.03;6005877;28;20031;-68
2022/10/01 05:45:02;;;;;;;5.90;3.20;;;;;;;9.77;90.40;99820.75;5999626;28;20066;-68
2022/10/01 05:48:03;;;;;;;5.25;2.95;;;;;;;9.58;91.81;99804.19;5999486;28;20109;-68
2022/10/01 05:50:58;;;;;;;6.53;2.92;;;;;;;9.43;93.48;99762.63;5998098;28;21787;-67
2022/10/01 05:53:54;;;;;;;4.87;2.67;;;;;;;9.46;93.99;99791.38;5999319;28;20097;-67
2022/10/01 05:56:50;;;;;;;4.70;2.55;;;;;;;9.38;95.40;99794.84;5999364;28;20070;-67
2022/10/01 05:59:45;;;;;;;6.97;2.83;;;;;;;9.41;96.10;99807.75;5999048;28;20453;-67
2022/10/01 06:02:40;;;;;;;4.73;2.83;;;;;;;9.36;97.32;99791.53;6000939;28;20038;-68
2022/10/01 06:05:36;;;;;;;6.40;2.90;;;;;;;9.25;98.55;99796.28;6022812;28;20497;-66
2022/10/01 06:08:36;;;;;;;8.48;2.85;;;;;;;9.24;99.33;99792.81;5999797;28;20278;-66
2022/10/01 06:11:35;;;;;;;6.88;3.53;;;;;;;9.21;100.00;99787.88;5998783;28;20471;-66
2022/10/01 06:14:30;;;;;;;10.05;3.20;;;;;;;9.16;100.00;99779.56;5999256;28;20517;-66
2022/10/01 06:17:26;;;;;;;7.50;3.13;;;;;;;9.15;100.00;99769.97;5999106;28;20030;-67
2022/10/01 06:20:22;;;;;;;6.40;3.30;;;;;;;9.19;100.00;99800.41;5997823;28;20100;-68
2022/10/01 06:23:18;;;;;;;5.88;2.97;;;;;;;9.19;100.00;99783.69;5998982;28;20030;-68
2022/10/01 06:26:13;;;;;;;5.95;3.25;;;;;;;9.09;100.00;99762.69;5998663;28;20320;-69
2022/10/01 06:29:09;;;;;;;6.90;2.83;;;;;;;9.11;100.00;99768.63;5999061;28;20034;-67
2022/10/01 06:32:06;;;;;;;6.00;3.25;;;;;;;9.17;100.00;99773.28;5997067;28;20089;-67
2022/10/01 06:35:02;;;;;;;7.00;3.53;;;;;;;9.16;100.00;99770.81;5998278;28;20027;-67
2022/10/01 06:38:00;;;;;;;9.00;2.97;;;;;;;9.09;100.00;99749.47;5999392;28;20027;-68
2022/10/01 06:40:57;;;;;;;6.97;3.42;;;;;;;9.16;100.00;99763.69;5998317;28;20066;-68
2022/10/01 06:43:53;;;;;;;7.38;3.67;;;;;;;9.15;100.00;99746.19;5999199;28;20026;-67
2022/10/01 06:46:48;;;;;;;6.67;3.50;;;;;;;9.02;100.00;99721.19;5998657;28;20042;-67
2022/10/01 06:49:43;;;;;;;6.00;3.07;;;;;;;9.15;100.00;99748.81;5998479;28;20282;-67
2022/10/01 06:52:47;;;;;;;4.43;3.10;;;;;;;9.11;100.00;99721.03;5998412;28;20067;-67
2022/10/01 06:55:43;;;;;;;6.03;2.72;;;;;;;9.19;100.00;99725.50;5998644;28;20058;-67
2022/10/01 06:58:39;;;;;;;5.53;3.08;;;;;;;9.11;100.00;99713.09;6015020;28;20041;-67
2022/10/01 07:01:35;;;;;;;8.23;3.87;;;;;;;9.13;100.00;99708.47;6014246;28;20069;-67
2022/10/01 07:04:30;;;;;;;5.60;2.97;;;;;;;9.18;100.00;99711.47;5998883;28;20043;-67
2022/10/01 07:07:34;;;;;;;6.40;3.60;;;;;;;9.16;100.00;99680.91;5998752;28;20359;-67
2022/10/01 07:10:30;;;;;;;7.68;3.78;;;;;;;9.19;100.00;99670.78;5997892;28;20031;-67
2022/10/01 07:13:26;;;;;;;5.68;2.75;;;;;;;9.18;100.00;99674.44;5998468;28;20031;-68
2022/10/01 07:16:21;;;;;;;7.23;3.30;;;;;;;9.18;100.00;99666.50;5998053;28;20106;-67
2022/10/01 07:19:17;;;;;;;5.22;3.05;;;;;;;9.28;100.00;99679.56;5997256;28;20090;-67
2022/10/01 07:22:12;;;;;;;8.87;2.87;;;;;;;9.18;100.00;99663.88;5997784;28;20390;-67
2022/10/01 07:25:08;;;;;;;6.32;3.47;;;;;;;9.31;100.00;99677.44;5998023;28;20030;-67
2022/10/01 07:28:04;;;;;;;5.35;3.10;;;;;;;9.34;100.00;99684.22;5997775;28;20046;-67
2022/10/01 07:31:02;;;;;;;5.45;2.63;;;;;;;9.28;100.00;99656.59;5997239;28;20090;-67
2022/10/01 07:33:58;;;;;;;5.80;2.92;;;;;;;9.30;100.00;99653.78;6006921;28;20037;-67
2022/10/01 07:36:55;;;;;;;5.63;2.50;;;;;;;9.34;100.00;99665.69;6026034;28;20030;-67
2022/10/01 07:39:50;;;;;;;5.45;2.47;;;;;;;9.42;100.00;99682.41;6007213;28;20137;-67
2022/10/01 07:42:53;;;;;;;2.97;1.83;;;;;;;9.33;100.00;99664.88;6001970;28;20045;-67
2022/10/01 07:45:51;;;;;;;4.32;2.58;;;;;;;9.40;100.00;99665.84;6002391;28;20027;-67
2022/10/01 07:48:47;;;;;;;4.78;2.42;;;;;;;9.44;100.00;99674.31;6001063;28;20026;-67
2022/10/01 07:51:43;;;;;;;6.32;2.60;;;;;;;9.44;100.00;99675.13;5999899;28;20037;-67
2022/10/01 07:54:38;;;;;;;4.50;2.30;;;;;;;9.44;100.00;99680.44;6000146;28;20026;-67
2022/10/01 07:57:35;;;;;;;5.95;2.08;;;;;;;9.47;100.00;99685.41;6000362;28;20059;-67
2022/10/01 08:00:34;;;;;;;4.13;2.50;;;;;;;9.46;100.00;99675.78;5998934;28;20065;-67
2022/10/01 08:03:29;;;;;;;4.40;2.47;;;;;;;9.41;100.00;99669.34;6008623;28;20034;-67
2022/10/01 08:06:24;;;;;;;6.57;2.70;;;;;;;9.45;100.00;99666.22;6025185;28;20073;-67
2022/10/01 08:09:19;;;;;;;4.90;2.60;;;;;;;9.46;100.00;99659.06;6008914;28;20030;-68
2022/10/01 08:12:16;;;;;;;4.83;2.30;;;;;;;9.46;100.00;99662.56;6001180;28;21101;-67
2022/10/01 08:15:14;;;;;;;4.32;2.40;;;;;;;9.41;100.00;99638.41;6001742;28;20281;-66
2022/10/01 08:18:10;;;;;;;3.60;1.73;;;;;;;9.43;100.00;99632.97;6001829;28;20022;-66
2022/10/01 08:21:06;;;;;;;5.50;1.90;;;;;;;9.57;100.00;99643.72;6000432;28;20034;-66
2022/10/01 08:24:02;;;;;;;2.53;1.55;;;;;;;9.49;100.00;99641.06;6001643;28;20482;-66
2022/10/01 08:26:57;;;;;;;3.17;1.67;;;;;;;9.53;100.00;99633.63;6001149;28;20031;-66
2022/10/01 08:29:53;;;;;;;5.22;2.15;;;;;;;9.56;100.00;99642.06;6001189;28;20062;-66
2022/10/01 08:32:53;;;;;;;2.53;1.43;;;;;;;9.66;100.00;99630.47;6001032;28;20447;-65
2022/10/01 08:35:48;;;;;;;3.65;2.03;;;;;;;9.66;100.00;99641.06;6001645;28;20306;-65
2022/10/01 08:38:45;;;;;;;3.17;1.57;;;;;;;9.74;100.00;99651.63;6013569;28;20033;-66
2022/10/01 08:41:48;;;;;;;2.15;1.30;;;;;;;9.83;100.00;99659.41;6000429;28;20353;-66
2022/10/01 08:44:45;;;;;;;2.92;1.52;;;;;;;9.82;100.00;99662.22;6015992;28;20046;-66
2022/10/01 08:47:48;;;;;;;2.30;1.33;;;;;;;9.87;100.00;99665.19;6000935;28;20027;-65
2022/10/01 08:50:53;;;;;;;3.03;1.50;;;;;;;9.80;100.00;99654.47;5986210;28;20146;-66
2022/10/01 08:53:53;;;;;;;2.65;1.40;;;;;;;9.88;100.00;99658.91;5977209;28;20042;-65
2022/10/01 08:56:49;;;;;;;2.70;1.30;;;;;;;9.97;100.00;99658.72;6001236;28;20031;-66
2022/10/01 08:59:47;;;;;;;2.03;1.15;;;;;;;9.99;100.00;99662.03;5999868;28;20422;-65
2022/10/01 09:02:45;;;;;;;2.15;1.35;;;;;;;10.10;100.00;99669.66;5999982;28;20050;-65
2022/10/01 09:05:43;;;;;;;3.10;1.38;;;;;;;10.21;100.00;99670.31;5998002;28;20035;-65
2022/10/01 09:08:45;;;;;;;3.35;1.25;;;;;;;10.25;100.00;99663.66;6000139;28;20170;-65
2022/10/01 09:11:57;;;;;;;3.28;1.30;;;;;;;10.25;100.00;99675.09;6019793;28;20035;-66
2022/10/01 09:14:54;;;;;;;3.35;1.67;;;;;;;10.28;100.00;99669.44;6020633;28;20046;-65
2022/10/01 09:18:01;;;;;;;2.08;1.10;;;;;;;10.28;100.00;99658.03;6037707;28;20038;-65
2022/10/01 09:20:58;;;;;;;2.65;1.00;;;;;;;10.26;100.00;99660.84;6010997;28;20035;-65
2022/10/01 09:24:02;;;;;;;2.08;1.15;;;;;;;10.32;100.00;99670.78;5998884;28;20039;-65
2022/10/01 09:26:57;;;;;;;1.70;1.00;;;;;;;10.28;100.00;99664.16;6000751;28;20446;-66
2022/10/01 09:29:56;;;;;;;2.83;1.20;;;;;;;10.31;100.00;99669.13;5999092;28;20035;-65
2022/10/01 09:33:08;;;;;;;2.58;1.10;;;;;;;10.40;100.00;99683.19;6006488;28;20038;-66
2022/10/01 09:36:14;;;;;;;3.83;1.20;;;;;;;10.35;100.00;99659.84;6000721;28;20073;-65
2022/10/01 09:39:19;;;;;;;3.25;1.33;;;;;;;10.44;100.00;99658.81;5999495;28;20034;-65
2022/10/01 09:42:17;;;;;;;2.42;1.02;;;;;;;10.43;100.00;99682.84;6031583;28;20031;-66
2022/10/01 09:45:13;;;;;;;4.45;1.55;;;;;;;10.47;100.00;99670.88;6011598;28;20069;-65
2022/10/01 09:48:28;;;;;;;2.15;1.30;;;;;;;10.53;100.00;99675.50;5998600;28;20126;-66
2022/10/01 09:51:31;;;;;;;1.73;1.10;;;;;;;10.47;100.00;99666.41;5999512;28;20032;-66
2022/10/01 09:54:32;;;;;;;2.55;1.10;;;;;;;10.49;100.00;99667.06;6004702;28;20034;-67
2022/10/01 09:57:43;;;;;;;1.48;0.90;;;;;;;10.61;100.00;99681.59;5997927;28;20038;-66
2022/10/01 10:00:39;;;;;;;1.88;1.00;;;;;;;10.72;100.00;99683.88;5986345;28;20062;-66
2022/10/01 10:03:35;;;;;;;3.28;1.30;;;;;;;10.75;100.00;99666.81;5998649;28;20038;-66
2022/10/01 10:06:32;;;;;;;2.00;1.00;;;;;;;10.88;100.00;99675.03;6000325;28;20030;-66
2022/10/01 10:09:30;;;;;;;3.42;1.23;;;;;;;10.99;100.00;99679.09;5997886;28;20982;-66
2022/10/01 10:12:29;;;;;;;3.03;1.58;;;;;;;11.18;100.00;99658.28;5997751;28;20042;-66
2022/10/01 10:15:25;;;;;;;2.97;1.40;;;;;;;11.52;100.00;99676.47;5999430;28;20113;-66
2022/10/01 10:18:27;;;;;;;2.70;1.13;;;;;;;11.62;100.00;99677.03;5999223;28;20485;-67
2022/10/01 10:21:26;;;;;;;2.20;0.82;;;;;;;11.62;99.01;99669.06;6013639;28;20394;-67
2022/10/01 10:24:39;;;;;;;3.78;1.30;;;;;;;11.76;98.38;99665.69;5997535;28;20084;-66
2022/10/01 10:27:35;;;;;;;1.42;0.60;;;;;;;11.79;97.99;99657.34;5998637;28;20041;-64
2022/10/01 10:30:31;;;;;;;0.95;0.70;;;;;;;11.81;98.95;99671.28;5999613;28;20030;-67
2022/10/01 10:33:26;;;;;;;1.73;0.98;;;;;;;11.97;98.23;99680.09;5999156;28;20154;-66
2022/10/01 10:36:27;;;;;;;2.40;0.93;;;;;;;12.16;97.80;99684.88;6016040;28;20382;-66
2022/10/01 10:39:27;;;;;;;2.45;1.25;;;;;;;12.28;97.42;99668.31;5998247;28;20148;-66
2022/10/01 10:42:24;;;;;;;3.33;0.85;;;;;;;12.57;96.68;99683.44;5995779;28;20390;-66
2022/10/01 10:45:35;;;;;;;1.38;0.82;;;;;;;12.79;94.05;99669.22;5997806;28;20035;-66
2022/10/01 10:48:38;;;;;;;2.22;1.05;;;;;;;12.99;93.32;99672.91;5998558;28;20031;-67
2022/10/01 10:51:44;;;;;;;1.23;0.70;;;;;;;12.89;93.48;99684.88;5994113;28;20023;-66
2022/10/01 10:54:40;;;;;;;0.57;0.50;;;;;;;12.98;92.99;99676.59;5997777;28;20114;-67
2022/10/01 10:57:36;;;;;;;0.63;0.60;;;;;;;12.85;92.34;99676.44;6004207;28;20499;-66
2022/10/01 11:00:35;;;;;;;0.75;0.57;;;;;;;13.04;92.23;99691.81;5996018;28;20057;-67
2022/10/01 11:03:31;;;;;;;1.92;0.90;;;;;;;13.68;91.88;99705.22;6005294;28;20046;-67
2022/10/01 11:06:27;;;;;;;0.63;0.60;;;;;;;13.54;89.88;99690.13;6019694;28;20069;-67
2022/10/01 11:09:27;;;;;;;1.33;0.73;;;;;;;13.58;88.75;99705.56;6014455;28;20026;-67
2022/10/01 11:12:37;;;;;;;1.23;0.82;;;;;;;13.43;89.11;99712.75;6009236;28;20119;-67
2022/10/01 11:15:54;;;;;;;1.35;0.70;;;;;;;13.35;90.52;99704.06;6002792;28;20794;-66
2022/10/01 11:19:00;;;;;;;1.33;0.80;;;;;;;13.36;90.91;99719.03;6001297;28;20119;-66
2022/10/01 11:22:01;;;;;;;1.80;0.80;;;;;;;13.42;90.98;99702.31;6001317;28;20039;-66
2022/10/01 11:25:02;;;;;;;1.30;0.93;;;;;;;13.53;90.30;99707.16;6002693;28;20405;-66
2022/10/01 11:27:58;;;;;;;2.25;0.93;;;;;;;13.66;90.97;99716.09;6002777;28;20034;-66
2022/10/01 11:30:59;;;;;;;3.33;1.30;;;;;;;13.63;89.87;99712.97;6002032;28;20027;-66
2022/10/01 11:34:13;;;;;;;2.20;1.30;;;;;;;13.78;89.01;99718.25;6002780;28;20031;-66
2022/10/01 11:37:36;;;;;;;2.38;1.52;;;;;;;13.79;89.41;99720.72;6002556;28;20038;-66
2022/10/01 11:40:37;;;;;;;4.47;1.50;;;;;;;13.87;88.81;99725.91;6000725;28;20034;-67
2022/10/01 11:43:36;;;;;;;2.20;1.05;;;;;;;13.98;89.14;99727.22;6007274;28;20030;-66
2022/10/01 11:46:52;;;;;;;2.67;1.20;;;;;;;14.16;87.82;99712.41;6025022;28;20062;-67
2022/10/01 11:49:54;;;;;;;1.90;1.20;;;;;;;14.32;87.07;99729.19;6005448;28;20094;-66
2022/10/01 11:52:57;;;;;;;1.70;1.00;;;;;;;14.42;86.51;99716.31;6002072;28;20038;-66
2022/10/01 11:59:25;;;;;;;2.20;1.17;;;;;;;15.06;83.98;99719.53;6002153;28;20493;-67
2022/10/01 12:02:33;;;;;;;3.63;1.27;;;;;;;15.12;83.75;99727.59;6001202;28;20122;-67
2022/10/01 12:05:30;;;;;;;2.42;1.30;;;;;;;15.09;81.43;99717.28;6000905;28;20057;-67
2022/10/01 12:08:30;;;;;;;1.77;1.20;;;;;;;15.05;83.02;99725.91;6016241;28;20073;-67
2022/10/01 12:11:33;;;;;;;2.60;1.15;;;;;;;15.27;81.10;99714.88;6016083;28;20060;-66
2022/10/01 12:14:40;;;;;;;2.20;1.30;;;;;;;15.61;81.43;99726.53;5996502;28;20453;-66
2022/10/01 12:17:47;;;;;;;3.08;1.25;;;;;;;15.70;80.62;99730.66;5997567;28;20591;-66
2022/10/01 12:21:05;;;;;;;4.07;1.38;;;;;;;15.59;79.04;99729.41;6005171;28;20031;-67
2022/10/01 12:24:05;;;;;;;2.20;1.20;;;;;;;15.30;81.46;99727.84;5997479;28;20030;-66
2022/10/01 12:27:21;;;;;;;2.78;1.23;;;;;;;15.20;82.33;99730.06;5998526;28;20073;-66
2022/10/01 12:30:19;;;;;;;4.07;1.65;;;;;;;14.95;82.00;99720.94;5997664;28;20023;-66
2022/10/01 12:33:14;;;;;;;11.18;3.58;;;;;;;15.11;82.48;99731.25;6001781;28;20026;-66
2022/10/01 12:36:37;;;;;;;7.07;1.50;;;;;;;15.14;82.60;99720.19;6003259;28;20037;-67
2022/10/01 12:39:49;;;;;;;7.15;1.67;;;;;;;15.39;81.09;99734.66;5994777;28;20106;-67
2022/10/01 12:43:19;;;;;;;3.35;1.60;;;;;;;15.63;80.45;99735.16;5997880;28;20042;-67
2022/10/01 12:46:30;;;;;;;3.70;1.90;;;;;;;15.92;80.10;99738.31;6011352;28;20062;-67
2022/10/01 12:49:40;;;;;;;4.65;1.90;;;;;;;16.35;79.61;99730.69;5998769;28;20482;-66
2022/10/01 12:52:42;;;;;;;3.65;1.85;;;;;;;16.35;77.67;99736.06;5988201;28;20598;-67
2022/10/01 12:56:16;;;;;;;5.10;1.60;;;;;;;16.50;77.63;99733.97;6000134;28;20774;-67
2022/10/01 12:59:17;;;;;;;3.55;1.60;;;;;;;16.21;76.78;99736.25;5995642;28;20038;-66
2022/10/01 13:02:49;;;;;;;3.97;1.33;;;;;;;16.34;77.10;99739.75;6012012;28;20104;-67
2022/10/01 13:06:03;;;;;;;5.10;2.20;;;;;;;16.30;75.91;99725.16;6002695;28;20641;-66
2022/10/01 13:09:19;;;;;;;5.40;1.95;;;;;;;16.70;76.08;99743.84;5998450;28;20035;-66
2022/10/01 13:12:50;;;;;;;3.88;1.50;;;;;;;16.51;75.87;99735.63;6000102;28;20030;-68
2022/10/01 13:15:48;;;;;;;3.67;1.33;;;;;;;16.60;76.31;99745.09;6000156;28;20509;-66
2022/10/01 13:18:52;;;;;;;2.00;1.50;;;;;;;16.89;74.49;99733.09;6008738;28;20082;-67
2022/10/01 13:22:07;;;;;;;2.70;1.60;;;;;;;16.95;72.75;99752.84;5999391;28;20135;-67
2022/10/01 13:25:18;;;;;;;4.55;2.13;;;;;;;16.24;75.50;99754.56;5997945;28;20067;-67
2022/10/01 13:28:25;;;;;;;3.17;1.75;;;;;;;15.86;77.77;99757.84;5999871;28;20035;-66
2022/10/01 13:31:33;;;;;;;3.75;1.95;;;;;;;15.78;77.78;99757.22;5998863;28;20470;-66
2022/10/01 13:34:41;;;;;;;4.25;2.22;;;;;;;15.90;78.30;99748.38;6000025;28;20039;-66
2022/10/01 13:37:38;;;;;;;6.88;2.33;;;;;;;15.74;78.29;99732.72;5999893;28;20035;-66
2022/10/01 13:40:34;;;;;;;3.40;2.15;;;;;;;15.81;78.55;99754.13;5999512;28;20478;-67
2022/10/01 13:43:31;;;;;;;4.47;2.10;;;;;;;15.76;78.87;99757.38;6003148;28;20054;-66
2022/10/01 13:46:29;;;;;;;5.00;1.98;;;;;;;15.81;79.15;99754.13;6022101;28;20109;-66
2022/10/01 13:49:27;;;;;;;4.03;2.03;;;;;;;15.86;78.82;99760.50;6022331;28;20030;-67
2022/10/01 13:52:24;;;;;;;7.22;2.33;;;;;;;15.94;78.51;99743.44;6021195;28;20141;-66
2022/10/01 13:55:28;;;;;;;4.93;2.10;;;;;;;16.14;78.20;99751.50;6023170;28;20038;-67
2022/10/01 13:58:58;;;;;;;7.03;2.40;;;;;;;16.15;77.70;99751.28;6015499;28;20053;-67
2022/10/01 14:01:54;;;;;;;6.70;2.03;;;;;;;15.91;76.97;99749.19;5999234;28;20035;-66
2022/10/01 14:04:49;;;;;;;3.72;2.03;;;;;;;15.98;77.46;99750.06;5999319;28;20477;-67
2022/10/01 14:07:46;;;;;;;4.68;2.45;;;;;;;16.02;77.75;99745.91;5998453;28;20315;-67
2022/10/01 14:17:42;;;;;;;2.97;1.98;;;;;;;15.64;77.66;99763.53;5993964;28;20043;-66
2022/10/01 14:20:53;;;;;;;5.50;1.92;;;;;;;15.57;78.01;99762.72;5997549;28;20035;-65